Terminal Aerodrome Forecast
Issued by NWS

Home | Current Version | Previous Version | Graphics & Text | Print | Product List | Glossary On
Versions: 1 2 3 4 5 6 7 8 9 10 11 12 13 14
000
FTUS43 KIWX 271100
TAFSBN
TAF
KSBN 271139Z 2712/2812 09004KT 6SM BR SCT250
      TEMPO 2712/2713 3SM BR
     FM280900 00000KT 3SM BR BKN250=

USA.gov is the U.S. government's official web portal to all federal, state and local government web resources and services.